createdAt,value
2024-05-09T00:01:54.096Z,28.58
2024-05-09T00:04:26.275Z,31.48
2024-05-09T00:06:55.778Z,31.90
2024-05-09T00:09:25.437Z,29.40
2024-05-09T00:11:54.971Z,28.60
2024-05-09T00:14:24.591Z,30.85
2024-05-09T00:16:54.140Z,26.35
2024-05-09T00:19:27.610Z,29.08
2024-05-09T00:21:57.142Z,31.27
2024-05-09T00:24:26.655Z,33.60
2024-05-09T00:26:56.186Z,34.45
2024-05-09T00:29:26.197Z,34.22
2024-05-09T00:31:55.883Z,33.75
2024-05-09T00:34:28.278Z,30.60
2024-05-09T00:36:57.932Z,34.67
2024-05-09T00:39:27.440Z,36.97
2024-05-09T00:41:56.948Z,36.50
2024-05-09T00:44:26.566Z,35.85
2024-05-09T00:46:57.489Z,38.58
2024-05-09T00:49:29.723Z,35.60
2024-05-09T00:51:59.653Z,40.30
2024-05-09T00:54:29.606Z,37.35
2024-05-09T00:56:59.233Z,37.70
2024-05-09T00:59:28.863Z,39.05
2024-05-09T01:01:58.586Z,41.38
2024-05-09T01:04:30.792Z,36.45
2024-05-09T01:07:00.316Z,34.95
2024-05-09T01:09:29.863Z,38.85
2024-05-09T01:11:59.469Z,41.40
2024-05-09T01:14:29.157Z,41.00
2024-05-09T01:16:58.977Z,36.45
2024-05-09T01:19:32.279Z,39.30
2024-05-09T01:22:02.073Z,34.17
2024-05-09T01:24:34.207Z,40.75
2024-05-09T01:27:03.753Z,41.40
2024-05-09T01:29:33.412Z,38.10
2024-05-09T01:34:33.921Z,37.05
2024-05-09T01:37:03.426Z,41.03
2024-05-09T01:39:35.645Z,38.33
2024-05-09T01:42:05.249Z,41.08
2024-05-09T01:44:34.785Z,38.97
2024-05-09T01:47:05.324Z,35.65
2024-05-09T01:49:38.572Z,41.33
2024-05-09T01:52:08.312Z,47.13
2024-05-09T01:54:40.434Z,46.50
2024-05-09T01:57:09.966Z,41.55
2024-05-09T01:59:39.635Z,44.30
2024-05-09T02:02:09.291Z,41.05
2024-05-09T02:04:38.993Z,42.38
2024-05-09T02:07:08.576Z,42.85
2024-05-09T02:09:40.722Z,45.55
2024-05-09T02:12:10.529Z,42.33
2024-05-09T02:14:40.289Z,39.42
2024-05-09T02:17:09.830Z,41.90
2024-05-09T02:19:39.464Z,39.88
2024-05-09T02:22:09.033Z,43.53
2024-05-09T02:24:41.130Z,39.88
2024-05-09T02:27:10.659Z,37.53
2024-05-09T02:29:40.166Z,41.13
2024-05-09T02:32:10.011Z,40.85
2024-05-09T02:34:39.586Z,42.08
2024-05-09T02:37:09.087Z,36.15
2024-05-09T02:39:38.572Z,32.60
2024-05-09T02:42:08.351Z,38.25
2024-05-09T02:44:35.296Z,37.03
2024-05-09T02:47:04.847Z,42.45
2024-05-09T02:49:31.873Z,39.30
2024-05-09T02:52:01.400Z,38.33
2024-05-09T02:54:28.340Z,42.17
2024-05-09T02:57:00.445Z,37.65
2024-05-09T02:59:27.634Z,36.63
2024-05-09T03:01:57.322Z,41.97
2024-05-09T03:04:24.361Z,42.80
2024-05-09T03:06:53.867Z,39.67
2024-05-09T03:09:21.520Z,41.20
2024-05-09T03:11:51.138Z,42.45
2024-05-09T03:14:20.878Z,38.95
2024-05-09T03:16:50.429Z,39.42
2024-05-09T03:19:17.584Z,43.05
2024-05-09T03:21:47.150Z,43.65
2024-05-09T03:24:14.074Z,39.75
2024-05-09T03:26:44.238Z,44.17
2024-05-09T03:29:11.184Z,43.97
2024-05-09T03:31:43.865Z,43.20
2024-05-09T03:34:11.598Z,44.67
2024-05-09T03:36:44.011Z,35.00
2024-05-09T03:39:13.572Z,40.42
2024-05-09T03:41:43.272Z,46.30
2024-05-09T03:44:10.240Z,45.55
2024-05-09T03:46:40.450Z,50.88
2024-05-09T03:49:10.122Z,51.95
2024-05-09T03:51:39.663Z,48.70
2024-05-09T03:54:06.605Z,53.15
2024-05-09T03:56:37.876Z,53.00
2024-05-09T03:59:04.890Z,47.95
2024-05-09T04:01:34.618Z,45.65
2024-05-09T04:04:01.577Z,49.58
2024-05-09T04:06:33.707Z,42.70
2024-05-09T04:09:00.648Z,48.85
2024-05-09T04:11:30.192Z,52.00
2024-05-09T04:13:57.204Z,48.78
2024-05-09T04:16:26.899Z,50.83
2024-05-09T04:18:54.061Z,51.97
2024-05-09T04:21:23.667Z,51.05
2024-05-09T04:23:53.224Z,64.60
2024-05-09T04:26:22.790Z,70.50
2024-05-09T04:28:49.780Z,72.13
2024-05-09T04:31:19.388Z,63.88
2024-05-09T04:33:46.586Z,63.10
2024-05-09T04:36:16.251Z,60.90
2024-05-09T04:38:43.284Z,63.63
2024-05-09T04:41:15.467Z,69.30
2024-05-09T04:43:42.434Z,61.65
2024-05-09T04:46:11.966Z,59.03
2024-05-09T04:48:38.923Z,70.03
2024-05-09T04:51:09.967Z,68.75
2024-05-09T04:53:37.171Z,59.70
2024-05-09T04:56:07.431Z,59.22
2024-05-09T04:58:37.191Z,54.30
2024-05-09T05:01:07.291Z,56.70
2024-05-09T05:03:34.362Z,60.92
2024-05-09T05:06:04.211Z,47.60
2024-05-09T05:08:31.422Z,55.50
2024-05-09T05:11:01.077Z,49.35
2024-05-09T05:13:31.143Z,54.75
2024-05-09T05:16:04.865Z,49.45
2024-05-09T05:18:31.886Z,45.08
2024-05-09T05:21:01.678Z,45.60
2024-05-09T05:23:28.650Z,37.08
2024-05-09T05:25:58.228Z,38.08
2024-05-09T05:28:25.215Z,31.45
2024-05-09T05:30:54.710Z,27.33
2024-05-09T05:33:24.374Z,23.55
2024-05-09T05:35:54.131Z,20.73
2024-05-09T05:38:24.868Z,20.95
2024-05-09T05:40:57.028Z,18.60
2024-05-09T05:43:24.000Z,21.20
2024-05-09T05:45:53.516Z,16.27
2024-05-09T05:48:23.248Z,17.10
2024-05-09T05:50:53.275Z,15.88
2024-05-09T05:53:22.900Z,16.42
2024-05-09T05:55:49.864Z,19.25
2024-05-09T05:58:20.269Z,17.17
2024-05-09T06:00:48.058Z,17.10
2024-05-09T06:03:18.267Z,18.55
2024-05-09T06:05:46.550Z,16.30
2024-05-09T06:08:19.022Z,18.95
2024-05-09T06:10:46.234Z,20.90
2024-05-09T06:13:16.089Z,22.20
2024-05-09T06:15:43.825Z,21.52
2024-05-09T06:18:13.870Z,21.90
2024-05-09T06:20:42.239Z,21.38
2024-05-09T06:23:13.375Z,20.20
2024-05-09T06:25:43.956Z,18.70
2024-05-09T06:28:13.919Z,23.40
2024-05-09T06:30:42.594Z,21.02
2024-05-09T06:33:15.688Z,19.33
2024-05-09T06:35:43.951Z,15.48
2024-05-09T06:38:13.750Z,14.20
2024-05-09T06:40:44.478Z,12.60
2024-05-09T06:43:16.888Z,14.25
2024-05-09T06:45:46.715Z,14.57
2024-05-09T06:48:16.532Z,13.25
2024-05-09T06:50:44.372Z,17.13
2024-05-09T06:53:16.672Z,19.52
2024-05-09T06:55:46.262Z,17.98
2024-05-09T06:58:15.820Z,16.77
2024-05-09T07:00:42.812Z,15.73
2024-05-09T07:03:14.932Z,19.13
2024-05-09T07:05:44.431Z,19.10
2024-05-09T07:08:16.045Z,22.48
2024-05-09T07:10:43.192Z,18.58
2024-05-09T07:13:16.195Z,17.70
2024-05-09T07:15:43.276Z,20.55
2024-05-09T07:18:15.366Z,16.63
2024-05-09T07:20:42.915Z,15.55
2024-05-09T07:23:12.935Z,13.77
2024-05-09T07:25:41.125Z,13.50
2024-05-09T07:28:17.082Z,14.95
2024-05-09T07:30:44.241Z,12.43
2024-05-09T07:33:18.764Z,10.15
2024-05-09T07:35:46.491Z,12.57
2024-05-09T07:38:16.255Z,12.93
2024-05-09T07:40:43.354Z,12.35
2024-05-09T07:43:15.737Z,20.55
2024-05-09T07:45:51.242Z,22.65
2024-05-09T07:52:38.372Z,19.30
2024-05-09T07:53:49.065Z,23.67
2024-05-09T07:56:21.841Z,22.63
2024-05-09T07:58:55.927Z,24.10
2024-05-09T08:01:27.172Z,19.70
2024-05-09T08:03:54.659Z,16.10
2024-05-09T08:06:24.380Z,22.75
2024-05-09T08:08:51.390Z,18.33
2024-05-09T08:11:21.042Z,22.52
2024-05-09T08:13:47.931Z,15.82
2024-05-09T08:16:20.256Z,21.70
2024-05-09T08:18:49.067Z,22.58
2024-05-09T08:21:19.233Z,22.42
2024-05-09T08:23:46.185Z,20.85
2024-05-09T08:26:15.679Z,17.95
2024-05-09T08:28:42.577Z,23.48
2024-05-09T08:31:12.530Z,23.23
2024-05-09T08:33:49.080Z,25.13
2024-05-09T08:36:16.108Z,21.35
2024-05-09T08:38:45.689Z,24.10
2024-05-09T08:41:14.377Z,22.13
2024-05-09T08:43:44.243Z,14.80
2024-05-09T08:46:12.961Z,20.20
2024-05-09T08:48:44.007Z,20.38
2024-05-09T08:51:13.936Z,19.90
2024-05-09T08:53:43.444Z,19.42
2024-05-09T08:56:11.522Z,21.10
2024-05-09T08:58:41.706Z,20.15
2024-05-09T09:01:10.139Z,19.30
2024-05-09T09:03:40.309Z,20.08
2024-05-09T09:06:09.340Z,18.52
2024-05-09T09:08:42.114Z,17.83
2024-05-09T09:11:09.091Z,21.27
2024-05-09T09:13:38.642Z,22.48
2024-05-09T09:16:06.682Z,19.10
2024-05-09T09:18:36.342Z,17.45
2024-05-09T09:21:03.550Z,16.75
2024-05-09T09:23:33.107Z,19.17
2024-05-09T09:26:02.653Z,18.83
2024-05-09T09:28:32.225Z,18.67
2024-05-09T09:31:03.000Z,21.42
2024-05-09T09:33:35.356Z,16.52
2024-05-09T09:36:03.032Z,24.60
2024-05-09T09:38:34.091Z,18.77
2024-05-09T09:41:06.982Z,17.83
2024-05-09T09:43:38.793Z,19.08
2024-05-09T09:46:08.707Z,17.60
2024-05-09T09:48:41.461Z,15.75
2024-05-09T09:51:08.924Z,20.15
2024-05-09T09:53:39.964Z,18.05
2024-05-09T09:56:10.346Z,15.27
2024-05-09T09:58:41.408Z,15.43
2024-05-09T10:01:08.549Z,16.15
2024-05-09T10:03:38.471Z,23.35
2024-05-09T10:06:06.851Z,15.50
2024-05-09T10:08:37.413Z,14.63
2024-05-09T10:11:04.695Z,17.65
2024-05-09T10:13:38.087Z,18.10
2024-05-09T10:16:09.595Z,15.30
2024-05-09T10:18:39.907Z,14.10
2024-05-09T10:21:16.525Z,13.10
2024-05-09T10:23:46.750Z,15.93
2024-05-09T10:26:13.680Z,13.98
2024-05-09T10:28:47.464Z,19.77
2024-05-09T10:31:15.872Z,16.27
2024-05-09T10:33:49.685Z,15.60
2024-05-09T10:36:20.091Z,13.15
2024-05-09T10:38:49.670Z,15.45
2024-05-09T10:41:16.857Z,15.63
2024-05-09T10:43:49.537Z,15.57
2024-05-09T10:46:18.052Z,15.35
2024-05-09T10:48:48.447Z,14.27
2024-05-09T10:51:16.747Z,14.55
2024-05-09T10:53:47.251Z,15.63
2024-05-09T10:56:17.609Z,12.43
2024-05-09T10:58:48.110Z,13.10
2024-05-09T11:01:18.803Z,13.45
2024-05-09T11:03:47.566Z,13.32
2024-05-09T11:08:44.591Z,13.60
2024-05-09T11:11:14.174Z,11.93
2024-05-09T11:13:41.186Z,14.23
2024-05-09T11:16:22.068Z,14.35
2024-05-09T11:18:59.494Z,15.00
2024-05-09T11:21:26.755Z,15.35
2024-05-09T11:23:56.389Z,15.40
2024-05-09T11:26:25.138Z,15.57
2024-05-09T11:28:54.767Z,16.75
2024-05-09T11:31:24.569Z,15.63
2024-05-09T11:33:56.726Z,16.10
2024-05-09T11:36:23.747Z,14.45
2024-05-09T11:38:53.495Z,16.52
2024-05-09T11:41:20.487Z,14.98
2024-05-09T11:43:49.983Z,15.48
2024-05-09T11:46:17.154Z,18.70
2024-05-09T11:48:49.636Z,13.80
2024-05-09T11:51:16.621Z,12.27
2024-05-09T11:53:46.135Z,15.15
2024-05-09T11:56:15.360Z,15.65
2024-05-09T11:58:44.911Z,15.90
2024-05-09T12:01:11.934Z,15.32
2024-05-09T12:03:41.582Z,12.57
2024-05-09T12:06:11.256Z,16.65
2024-05-09T12:08:41.095Z,13.90
2024-05-09T12:11:08.148Z,13.90
2024-05-09T12:13:37.726Z,16.10
2024-05-09T12:16:05.347Z,12.80
2024-05-09T12:18:35.352Z,11.77
2024-05-09T12:21:02.473Z,12.95
2024-05-09T12:23:34.580Z,14.95
2024-05-09T12:26:02.903Z,13.48
2024-05-09T12:28:32.539Z,13.45
2024-05-09T12:30:59.591Z,13.40
2024-05-09T12:33:29.615Z,13.90
2024-05-09T12:35:56.649Z,15.32
2024-05-09T12:38:26.155Z,13.38
2024-05-09T12:40:56.120Z,13.32
2024-05-09T12:43:26.004Z,11.48
2024-05-09T12:46:39.000Z,14.73
2024-05-09T12:49:06.073Z,11.63
2024-05-09T12:51:35.717Z,13.93
2024-05-09T12:54:02.665Z,11.40
2024-05-09T12:56:33.438Z,15.90
2024-05-09T12:59:00.389Z,10.98
2024-05-09T13:01:30.201Z,15.60
2024-05-09T13:04:00.140Z,12.48
2024-05-09T13:06:29.840Z,14.27
2024-05-09T13:08:56.812Z,14.50
2024-05-09T13:11:26.377Z,13.23
2024-05-09T13:13:53.300Z,14.38
2024-05-09T13:16:22.975Z,14.05
2024-05-09T13:18:50.233Z,14.48
2024-05-09T13:21:22.651Z,12.35
2024-05-09T13:23:49.604Z,13.00
2024-05-09T13:26:19.093Z,12.90
2024-05-09T13:28:46.038Z,14.35
2024-05-09T13:31:15.592Z,14.80
2024-05-09T13:33:42.680Z,12.40
2024-05-09T13:36:12.351Z,11.82
2024-05-09T13:38:41.932Z,14.65
2024-05-09T13:41:11.573Z,10.50
2024-05-09T13:43:38.896Z,13.52
2024-05-09T13:46:08.617Z,14.10
2024-05-09T13:48:35.783Z,13.57
2024-05-09T13:51:05.421Z,10.57
2024-05-09T13:53:32.367Z,8.63
2024-05-09T13:56:04.507Z,11.20
2024-05-09T13:58:31.668Z,11.45
2024-05-09T14:01:01.266Z,12.55
2024-05-09T14:03:29.936Z,12.93
2024-05-09T14:08:26.659Z,12.65
2024-05-09T14:10:56.310Z,13.77
2024-05-09T14:13:25.968Z,12.10
2024-05-09T14:15:55.708Z,14.13
2024-05-09T14:18:22.902Z,16.10
2024-05-09T14:20:52.533Z,13.25
2024-05-09T14:23:19.437Z,13.15
2024-05-09T14:25:52.050Z,11.95
2024-05-09T14:28:19.992Z,12.30
2024-05-09T14:30:53.232Z,12.52
2024-05-09T14:33:25.441Z,12.02
2024-05-09T14:35:55.427Z,13.23
2024-05-09T14:38:23.187Z,12.82
2024-05-09T14:40:53.292Z,11.35
2024-05-09T14:43:20.461Z,12.07
2024-05-09T14:45:53.309Z,12.63
2024-05-09T14:48:20.476Z,12.00
2024-05-09T14:50:50.360Z,11.95
2024-05-09T14:53:17.468Z,12.15
2024-05-09T14:55:47.311Z,12.07
2024-05-09T14:58:14.344Z,12.23
2024-05-09T15:00:48.506Z,14.52
2024-05-09T15:03:21.605Z,13.23
2024-05-09T15:05:52.479Z,13.32
2024-05-09T15:08:20.234Z,14.77
2024-05-09T15:10:50.686Z,13.02
2024-05-09T15:13:18.216Z,14.75
2024-05-09T15:15:48.207Z,14.48
2024-05-09T15:18:15.537Z,14.88
2024-05-09T15:20:48.285Z,14.75
2024-05-09T15:23:15.403Z,12.38
2024-05-09T15:25:45.069Z,14.43
2024-05-09T15:28:12.145Z,12.73
2024-05-09T15:30:45.478Z,13.20
2024-05-09T15:33:13.906Z,12.60
2024-05-09T15:35:45.675Z,15.68
2024-05-09T15:38:15.875Z,11.75
2024-05-09T15:40:45.388Z,13.35
2024-05-09T15:43:12.560Z,13.57
2024-05-09T15:45:42.524Z,12.40
2024-05-09T15:48:10.321Z,13.57
2024-05-09T15:50:42.141Z,14.23
2024-05-09T15:53:10.977Z,13.02
2024-05-09T15:58:11.361Z,14.90
2024-05-09T16:00:43.331Z,12.32
2024-05-09T16:03:13.347Z,12.43
2024-05-09T16:05:44.314Z,11.32
2024-05-09T16:08:12.266Z,14.63
2024-05-09T16:10:45.992Z,14.18
2024-05-09T16:13:14.590Z,13.65
2024-05-09T16:15:45.970Z,11.75
2024-05-09T16:18:13.360Z,11.05
2024-05-09T16:20:44.862Z,11.80
2024-05-09T16:23:13.593Z,11.13
2024-05-09T16:25:47.800Z,11.90
2024-05-09T16:28:15.260Z,10.85
2024-05-09T16:30:44.930Z,11.98
2024-05-09T16:33:14.735Z,12.13
2024-05-09T16:35:41.692Z,9.55
2024-05-09T16:38:11.380Z,11.90
2024-05-09T16:40:40.749Z,11.75
2024-05-09T16:43:14.223Z,12.05
2024-05-09T16:45:43.792Z,10.82
2024-05-09T16:48:14.158Z,12.00
2024-05-09T16:50:41.411Z,13.63
2024-05-09T16:53:11.158Z,9.02
2024-05-09T16:55:38.424Z,10.60
2024-05-09T16:58:09.210Z,14.90
2024-05-09T17:00:42.630Z,12.95
2024-05-09T17:03:15.890Z,11.32
2024-05-09T17:05:43.935Z,11.23
2024-05-09T17:08:13.797Z,11.07
2024-05-09T17:10:40.888Z,13.70
2024-05-09T17:13:10.535Z,15.50
2024-05-09T17:15:42.735Z,11.95
2024-05-09T17:18:12.374Z,15.02
2024-05-09T17:20:39.393Z,15.50
2024-05-09T17:23:13.323Z,14.40
2024-05-09T17:25:41.619Z,13.95
2024-05-09T17:28:11.711Z,12.63
2024-05-09T17:30:44.277Z,13.40
2024-05-09T17:33:12.627Z,13.13
2024-05-09T17:35:45.534Z,14.57
2024-05-09T17:38:12.674Z,13.43
2024-05-09T17:40:42.246Z,13.38
2024-05-09T17:43:10.485Z,14.15
2024-05-09T17:45:41.597Z,14.75
2024-05-09T17:48:12.394Z,15.63
2024-05-09T17:50:42.531Z,13.98
2024-05-09T17:53:10.163Z,13.88
2024-05-09T17:55:40.720Z,17.90
2024-05-09T17:58:08.046Z,15.25
2024-05-09T18:00:40.762Z,15.73
2024-05-09T18:03:13.044Z,13.73
2024-05-09T18:05:44.691Z,13.25
2024-05-09T18:08:12.468Z,14.80
2024-05-09T18:10:43.023Z,14.30
2024-05-09T18:13:11.082Z,13.65
2024-05-09T18:15:41.613Z,13.65
2024-05-09T18:18:12.363Z,13.18
2024-05-09T18:20:45.433Z,13.40
2024-05-09T18:23:16.201Z,14.27
2024-05-09T18:25:48.086Z,12.98
2024-05-09T18:28:16.571Z,13.35
2024-05-09T18:30:47.514Z,11.88
2024-05-09T18:33:17.473Z,12.10
2024-05-09T18:35:48.715Z,11.50
2024-05-09T18:38:16.222Z,13.27
2024-05-09T18:40:48.957Z,10.10
2024-05-09T18:43:17.308Z,10.90
2024-05-09T18:45:47.853Z,11.65
2024-05-09T18:48:18.440Z,8.68
2024-05-09T18:50:48.476Z,12.15
2024-05-09T18:53:16.235Z,11.88
2024-05-09T18:55:46.091Z,8.85
2024-05-09T18:58:13.589Z,8.73
2024-05-09T19:00:46.011Z,12.32
2024-05-09T19:03:18.294Z,9.80
2024-05-09T19:05:48.830Z,12.82
2024-05-09T19:08:16.024Z,10.63
2024-05-09T19:10:46.068Z,10.55
2024-05-09T19:13:14.376Z,10.20
2024-05-09T19:15:44.994Z,9.80
2024-05-09T19:18:12.727Z,10.38
2024-05-09T19:20:45.844Z,9.32
2024-05-09T19:23:12.933Z,11.63
2024-05-09T19:25:42.587Z,9.57
2024-05-09T19:28:09.580Z,10.93
2024-05-09T19:30:41.914Z,12.00
2024-05-09T19:33:11.371Z,10.18
2024-05-09T19:35:44.700Z,11.07
2024-05-09T19:38:11.943Z,14.68
2024-05-09T19:40:41.723Z,11.35
2024-05-09T19:43:11.665Z,10.93
2024-05-09T19:45:38.883Z,11.45
2024-05-09T19:48:09.490Z,11.73
2024-05-09T19:50:41.927Z,12.25
2024-05-09T19:53:16.919Z,12.10
2024-05-09T19:55:43.947Z,13.02
2024-05-09T19:58:13.730Z,10.70
2024-05-09T20:00:43.023Z,10.50
2024-05-09T20:03:14.821Z,13.45
2024-05-09T20:05:43.821Z,11.60
2024-05-09T20:08:16.216Z,10.35
2024-05-09T20:10:43.383Z,9.75
2024-05-09T20:13:13.020Z,11.27
2024-05-09T20:15:40.288Z,11.38
2024-05-09T20:18:10.109Z,10.73
2024-05-09T20:20:41.284Z,11.35
2024-05-09T20:23:16.226Z,11.15
2024-05-09T20:25:43.371Z,10.40
2024-05-09T20:28:12.942Z,10.75
2024-05-09T20:30:40.142Z,13.57
2024-05-09T20:33:10.391Z,11.05
2024-05-09T20:35:37.743Z,12.40
2024-05-09T20:38:07.667Z,8.68
2024-05-09T20:40:39.193Z,9.05
2024-05-09T20:43:10.802Z,10.50
2024-05-09T20:45:38.406Z,11.52
2024-05-09T20:48:09.710Z,10.32
2024-05-09T20:50:40.608Z,9.90
2024-05-09T20:53:13.722Z,9.02
2024-05-09T20:55:45.007Z,10.60
2024-05-09T20:58:15.165Z,11.40
2024-05-09T21:00:44.842Z,8.60
2024-05-09T21:03:17.016Z,10.98
2024-05-09T21:05:45.973Z,9.82
2024-05-09T21:08:15.809Z,10.65
2024-05-09T21:10:45.524Z,10.20
2024-05-09T21:13:15.312Z,10.55
2024-05-09T21:15:42.382Z,9.88
2024-05-09T21:18:11.947Z,9.70
2024-05-09T21:20:38.943Z,9.63
2024-05-09T21:23:08.487Z,11.50
2024-05-09T21:25:35.398Z,11.05
2024-05-09T21:28:08.142Z,9.60
2024-05-09T21:30:41.460Z,9.13
2024-05-09T21:33:14.266Z,9.55
2024-05-09T21:35:42.189Z,11.57
2024-05-09T21:38:13.324Z,8.85
2024-05-09T21:40:40.321Z,11.18
2024-05-09T21:43:12.596Z,11.15
2024-05-09T21:45:39.686Z,11.88
2024-05-09T21:48:10.378Z,11.95
2024-05-09T21:50:40.954Z,10.18
2024-05-09T21:53:12.862Z,10.05
2024-05-09T21:55:40.410Z,9.57
2024-05-09T21:58:12.646Z,11.05
2024-05-09T22:00:42.465Z,16.35
2024-05-09T22:03:12.718Z,13.05
2024-05-09T22:05:43.379Z,17.30
2024-05-09T22:08:13.263Z,10.20
2024-05-09T22:10:40.478Z,13.32
2024-05-09T22:13:12.846Z,10.98
2024-05-09T22:15:40.742Z,11.18
2024-05-09T22:18:11.773Z,8.75
2024-05-09T22:20:44.279Z,10.68
2024-05-09T22:23:15.208Z,15.02
2024-05-09T22:25:42.322Z,11.50
2024-05-09T22:28:16.084Z,16.42
2024-05-09T22:30:45.668Z,12.50
2024-05-09T22:33:15.769Z,10.98
2024-05-09T22:35:43.004Z,12.13
2024-05-09T22:38:12.518Z,13.40
2024-05-09T22:40:47.133Z,14.13
2024-05-09T22:43:24.630Z,12.63
2024-05-09T22:45:52.634Z,12.98
2024-05-09T22:48:23.391Z,14.80
2024-05-09T22:50:50.634Z,14.15
2024-05-09T22:53:20.516Z,15.27
2024-05-09T22:55:47.449Z,13.95
2024-05-09T22:58:17.063Z,12.65
2024-05-09T23:00:46.800Z,12.48
2024-05-09T23:03:18.539Z,14.68
2024-05-09T23:05:45.574Z,14.15
2024-05-09T23:08:15.087Z,13.00
2024-05-09T23:10:42.043Z,15.60
2024-05-09T23:13:11.607Z,15.48
2024-05-09T23:15:38.931Z,17.42
2024-05-09T23:18:11.436Z,13.70
2024-05-09T23:20:41.007Z,15.43
2024-05-09T23:23:08.501Z,14.52
2024-05-09T23:25:39.090Z,13.35
2024-05-09T23:28:06.573Z,17.83
2024-05-09T23:30:39.419Z,16.02
2024-05-09T23:33:11.687Z,14.43
2024-05-09T23:35:41.450Z,17.73
2024-05-09T23:38:08.416Z,20.63
2024-05-09T23:40:40.510Z,18.73
2024-05-09T23:43:09.293Z,18.15
2024-05-09T23:45:39.233Z,16.23
2024-05-09T23:48:07.792Z,16.92
2024-05-09T23:50:40.924Z,19.13
2024-05-09T23:53:09.455Z,18.92
2024-05-09T23:55:39.877Z,17.45
2024-05-09T23:58:07.415Z,18.70
